createdAt,value
2022-08-14T00:02:08.246Z,24.80
2022-08-14T00:07:14.072Z,25.00
2022-08-14T00:12:17.688Z,25.20
2022-08-14T00:17:27.902Z,25.10
2022-08-14T00:22:57.142Z,25.70
2022-08-14T00:27:55.872Z,25.60
2022-08-14T00:33:00.177Z,25.50
2022-08-14T00:38:07.045Z,25.40
2022-08-14T00:43:11.658Z,26.00
2022-08-14T00:48:34.702Z,25.40
2022-08-14T00:53:42.927Z,25.50
2022-08-14T00:58:48.581Z,26.10
2022-08-14T01:03:53.916Z,26.00
2022-08-14T01:08:59.509Z,25.50
2022-08-14T01:14:18.135Z,26.10
2022-08-14T01:19:44.166Z,25.80
2022-08-14T01:24:51.588Z,26.00
2022-08-14T01:30:01.416Z,26.50
2022-08-14T01:35:20.041Z,26.40
2022-08-14T01:40:41.069Z,26.30
2022-08-14T01:45:48.830Z,26.60
2022-08-14T01:50:52.385Z,26.50
2022-08-14T01:56:00.091Z,26.60
2022-08-14T02:01:05.218Z,27.20
2022-08-14T02:06:33.079Z,26.90
2022-08-14T02:11:37.656Z,27.10
2022-08-14T02:16:43.336Z,27.40
2022-08-14T02:21:50.556Z,27.20
2022-08-14T02:28:18.698Z,27.30
2022-08-14T02:32:36.608Z,27.50
2022-08-14T02:37:48.211Z,26.90
2022-08-14T02:42:54.534Z,27.10
2022-08-14T02:48:00.736Z,27.60
2022-08-14T02:53:06.003Z,27.20
2022-08-14T02:58:21.554Z,27.20
2022-08-14T03:03:35.451Z,27.80
2022-08-14T03:08:45.996Z,27.50
2022-08-14T03:13:52.630Z,27.90
2022-08-14T03:18:58.346Z,28.20
2022-08-14T03:24:21.574Z,27.80
2022-08-14T03:29:29.430Z,27.70
2022-08-14T03:34:47.755Z,28.00
2022-08-14T03:39:51.791Z,27.70
2022-08-14T03:45:18.844Z,27.90
2022-08-14T03:50:30.802Z,28.20
2022-08-14T03:55:34.410Z,27.90
2022-08-14T04:00:43.267Z,28.00
2022-08-14T04:05:48.614Z,28.40
2022-08-14T04:10:52.501Z,28.00
2022-08-14T04:16:02.097Z,28.00
2022-08-14T04:21:08.518Z,28.20
2022-08-14T04:26:27.335Z,28.20
2022-08-14T04:33:02.205Z,28.60
2022-08-14T04:37:24.531Z,28.70
2022-08-14T04:42:47.605Z,28.40
2022-08-14T04:48:13.855Z,28.40
2022-08-14T04:53:43.740Z,28.90
2022-08-14T04:58:47.963Z,28.80
2022-08-14T05:03:53.113Z,28.80
2022-08-14T05:09:00.219Z,29.30
2022-08-14T05:14:33.851Z,29.10
2022-08-14T05:19:29.837Z,29.30
2022-08-14T05:24:35.293Z,29.60
2022-08-14T05:29:44.791Z,29.30
2022-08-14T05:34:49.596Z,29.50
2022-08-14T05:39:52.769Z,30.20
2022-08-14T05:44:56.397Z,30.00
2022-08-14T05:50:01.883Z,30.50
2022-08-14T05:55:05.889Z,31.20
2022-08-14T06:00:10.488Z,30.70
2022-08-14T06:05:17.312Z,31.10
2022-08-14T06:10:28.254Z,31.40
2022-08-14T06:15:31.788Z,31.30
2022-08-14T06:20:36.817Z,31.70
2022-08-14T06:25:44.746Z,32.30
2022-08-14T06:30:56.465Z,32.40
2022-08-14T06:36:02.540Z,32.00
2022-08-14T06:41:10.925Z,32.70
2022-08-14T06:46:15.971Z,33.00
2022-08-14T06:51:38.767Z,32.30
2022-08-14T06:56:54.329Z,32.90
2022-08-14T07:02:19.035Z,32.30
2022-08-14T07:07:24.299Z,32.00
2022-08-14T07:12:44.855Z,32.70
2022-08-14T07:17:55.024Z,32.30
2022-08-14T07:23:07.471Z,32.40
2022-08-14T07:28:20.487Z,32.60
2022-08-14T07:33:30.094Z,32.30
2022-08-14T07:38:37.886Z,32.20
2022-08-14T07:43:41.929Z,31.80
2022-08-14T07:48:45.083Z,31.30
2022-08-14T07:53:56.774Z,31.00
2022-08-14T07:59:00.572Z,30.60
2022-08-14T08:04:11.000Z,30.50
2022-08-14T08:09:32.512Z,30.20
2022-08-14T08:14:56.938Z,30.00
2022-08-14T08:19:59.689Z,30.00
2022-08-14T08:25:07.409Z,29.70
2022-08-14T08:30:17.246Z,28.90
2022-08-14T08:35:23.512Z,29.00
2022-08-14T08:40:31.261Z,28.80
2022-08-14T08:45:37.532Z,27.70
2022-08-14T08:55:46.803Z,28.20
2022-08-14T09:00:54.170Z,26.80
2022-08-14T09:06:01.297Z,26.80
2022-08-14T09:11:19.947Z,26.30
2022-08-14T09:16:25.982Z,25.70
2022-08-14T09:21:31.281Z,25.90
2022-08-14T09:26:36.758Z,25.70
2022-08-14T09:31:52.914Z,24.60
2022-08-14T09:37:12.955Z,24.10
2022-08-14T09:42:49.810Z,23.70
2022-08-14T09:47:56.693Z,23.90
2022-08-14T09:53:04.495Z,23.60
2022-08-14T09:58:19.203Z,23.00
2022-08-14T10:03:33.320Z,22.40
2022-08-14T10:08:51.208Z,21.30
2022-08-14T10:13:58.386Z,21.50
2022-08-14T10:19:07.442Z,21.60
2022-08-14T10:24:13.077Z,21.50
2022-08-14T10:29:32.701Z,21.70
2022-08-14T10:34:40.805Z,21.50
2022-08-14T10:40:02.192Z,21.60
2022-08-14T10:45:21.908Z,21.10
2022-08-14T10:50:33.127Z,19.80
2022-08-14T10:55:45.754Z,20.20
2022-08-14T11:00:59.312Z,20.30
2022-08-14T11:06:18.725Z,19.90
2022-08-14T11:11:23.023Z,19.50
2022-08-14T11:16:29.488Z,19.90
2022-08-14T11:21:34.459Z,19.20
2022-08-14T11:26:45.053Z,19.30
2022-08-14T11:31:51.865Z,19.40
2022-08-14T11:37:04.282Z,19.50
2022-08-14T11:42:56.239Z,19.20
2022-08-14T11:48:13.315Z,18.80
2022-08-14T11:53:21.845Z,18.40
2022-08-14T11:58:28.499Z,17.80
2022-08-14T12:03:46.500Z,17.70
2022-08-14T12:09:00.260Z,17.10
2022-08-14T12:14:13.362Z,17.40
2022-08-14T12:19:45.921Z,17.20
2022-08-14T12:24:54.772Z,17.20
2022-08-14T12:29:57.921Z,17.50
2022-08-14T12:35:02.491Z,17.70
2022-08-14T12:40:13.743Z,17.10
2022-08-14T12:45:20.481Z,16.70
2022-08-14T12:50:36.589Z,17.30
2022-08-14T12:56:18.436Z,17.10
2022-08-14T13:01:17.019Z,17.10
2022-08-14T13:06:24.563Z,17.10
2022-08-14T13:11:36.353Z,16.70
2022-08-14T13:16:44.820Z,16.20
2022-08-14T13:21:58.537Z,16.50
2022-08-14T13:27:12.406Z,16.00
2022-08-14T13:32:16.425Z,16.80
2022-08-14T13:37:21.130Z,16.40
2022-08-14T13:42:30.850Z,16.00
2022-08-14T13:47:35.448Z,16.00
2022-08-14T13:52:59.018Z,15.90
2022-08-14T13:58:05.204Z,15.20
2022-08-14T14:03:10.449Z,15.70
2022-08-14T14:08:18.612Z,15.50
2022-08-14T14:13:44.952Z,15.20
2022-08-14T14:18:52.187Z,15.90
2022-08-14T14:23:58.053Z,15.10
2022-08-14T14:29:02.639Z,14.90
2022-08-14T14:34:07.290Z,15.30
2022-08-14T14:39:20.217Z,15.00
2022-08-14T14:44:26.957Z,14.50
2022-08-14T14:49:41.756Z,14.60
2022-08-14T14:54:56.179Z,14.70
2022-08-14T14:59:59.868Z,14.30
2022-08-14T15:05:03.314Z,14.80
2022-08-14T15:10:26.998Z,14.60
2022-08-14T15:15:36.803Z,14.00
2022-08-14T15:20:42.075Z,14.70
2022-08-14T15:25:53.116Z,14.80
2022-08-14T15:30:58.792Z,14.70
2022-08-14T15:36:03.857Z,14.80
2022-08-14T15:41:08.920Z,14.90
2022-08-14T15:46:41.369Z,14.50
2022-08-14T15:51:35.905Z,14.80
2022-08-14T15:56:46.948Z,14.90
2022-08-14T16:01:54.728Z,14.60
2022-08-14T16:06:58.381Z,15.00
2022-08-14T16:12:03.449Z,14.90
2022-08-14T16:17:07.957Z,15.00
2022-08-14T16:22:58.063Z,15.00
2022-08-14T16:27:41.372Z,15.20
2022-08-14T16:32:55.188Z,14.80
2022-08-14T16:38:19.645Z,14.90
2022-08-14T16:43:26.745Z,14.60
2022-08-14T16:48:57.732Z,14.90
2022-08-14T16:53:54.640Z,15.10
2022-08-14T16:59:12.305Z,15.70
2022-08-14T17:04:24.677Z,15.00
2022-08-14T17:09:31.831Z,15.00
2022-08-14T17:15:03.710Z,15.00
2022-08-14T17:20:39.423Z,15.10
2022-08-14T17:25:39.708Z,15.20
2022-08-14T17:30:56.873Z,15.30
2022-08-14T17:36:11.596Z,15.10
2022-08-14T17:41:32.834Z,15.10
2022-08-14T17:46:43.206Z,15.20
2022-08-14T17:52:07.620Z,15.20
2022-08-14T17:57:22.716Z,15.30
2022-08-14T18:02:31.429Z,15.60
2022-08-14T18:07:59.310Z,15.70
2022-08-14T18:13:00.418Z,15.90
2022-08-14T18:18:09.011Z,16.20
2022-08-14T18:23:13.160Z,17.10
2022-08-14T18:28:51.581Z,16.40
2022-08-14T18:33:52.809Z,16.60
2022-08-14T18:39:22.889Z,16.80
2022-08-14T18:45:12.891Z,16.70
2022-08-14T18:50:27.507Z,16.80
2022-08-14T18:56:00.049Z,17.30
2022-08-14T19:01:24.137Z,17.60
2022-08-14T19:07:16.323Z,17.80
2022-08-14T19:13:03.124Z,17.60
2022-08-14T19:18:26.362Z,18.00
2022-08-14T19:23:42.669Z,18.20
2022-08-14T19:28:49.134Z,18.70
2022-08-14T19:33:54.038Z,18.60
2022-08-14T19:39:01.980Z,19.00
2022-08-14T19:44:10.875Z,19.20
2022-08-14T19:49:14.661Z,19.10
2022-08-14T19:54:32.239Z,19.20
2022-08-14T19:59:57.631Z,19.80
2022-08-14T20:05:03.889Z,19.40
2022-08-14T20:11:08.060Z,19.60
2022-08-14T20:15:47.690Z,20.20
2022-08-14T20:20:51.106Z,20.10
2022-08-14T20:25:58.660Z,20.10
2022-08-14T20:31:17.901Z,20.10
2022-08-14T20:36:29.259Z,20.60
2022-08-14T20:41:33.865Z,20.40
2022-08-14T20:46:39.483Z,20.70
2022-08-14T20:51:58.470Z,20.90
2022-08-14T20:57:09.607Z,21.10
2022-08-14T21:02:46.883Z,21.90
2022-08-14T21:07:58.520Z,21.40
2022-08-14T21:14:09.203Z,21.40
2022-08-14T21:18:47.318Z,21.70
2022-08-14T21:23:57.441Z,22.50
2022-08-14T21:29:01.163Z,22.80
2022-08-14T21:34:27.242Z,22.50
2022-08-14T21:39:29.623Z,22.80
2022-08-14T21:44:43.174Z,22.60
2022-08-14T21:49:48.897Z,22.80
2022-08-14T21:54:54.117Z,23.40
2022-08-14T22:00:03.837Z,23.30
2022-08-14T22:05:29.692Z,23.60
2022-08-14T22:10:34.720Z,23.90
2022-08-14T22:15:38.491Z,23.50
2022-08-14T22:20:53.965Z,23.80
2022-08-14T22:25:59.656Z,24.30
2022-08-14T22:31:11.174Z,24.10
2022-08-14T22:36:42.399Z,24.80
2022-08-14T22:41:55.824Z,24.80
2022-08-14T22:47:00.845Z,25.50
2022-08-14T22:52:33.069Z,25.00
2022-08-14T22:57:41.990Z,25.80
2022-08-14T23:02:47.899Z,25.10
2022-08-14T23:09:00.129Z,25.50
2022-08-14T23:13:25.038Z,26.30
2022-08-14T23:18:29.472Z,26.20
2022-08-14T23:23:34.124Z,26.20
2022-08-14T23:28:56.542Z,27.00
2022-08-14T23:34:01.695Z,26.90
2022-08-14T23:39:10.579Z,27.10
2022-08-14T23:44:24.461Z,27.40
2022-08-14T23:49:28.742Z,27.40
2022-08-14T23:54:53.250Z,27.50
2022-08-14T23:59:58.888Z,27.50
